createdAt,value
2017-11-03T00:00:37.939Z,97000.00
2017-11-03T00:03:04.031Z,97000.77
2017-11-03T00:05:30.365Z,97009.45
2017-11-03T00:07:56.412Z,97007.67
2017-11-03T00:10:22.504Z,97009.50
2017-11-03T00:12:48.732Z,97003.45
2017-11-03T00:15:14.906Z,97004.59
2017-11-03T00:17:40.952Z,97005.59
2017-11-03T00:20:06.963Z,97012.55
2017-11-03T00:22:33.118Z,97008.61
2017-11-03T00:24:59.292Z,97005.73
2017-11-03T00:27:25.511Z,97002.84
2017-11-03T00:29:51.606Z,97007.86
2017-11-03T00:32:17.801Z,97004.41
2017-11-03T00:34:43.796Z,96999.56
2017-11-03T00:37:10.015Z,97003.20
2017-11-03T00:39:36.185Z,96997.13
2017-11-03T00:42:02.232Z,96999.12
2017-11-03T00:44:28.259Z,96998.39
2017-11-03T00:46:54.373Z,96987.33
2017-11-03T00:49:20.539Z,96988.33
2017-11-03T00:51:47.234Z,96989.89
2017-11-03T00:54:13.268Z,97000.36
2017-11-03T00:56:39.456Z,96995.19
2017-11-03T00:59:05.592Z,96994.41
2017-11-03T01:01:31.720Z,96991.91
2017-11-03T01:03:57.838Z,96999.43
2017-11-03T01:06:23.933Z,97002.11
2017-11-03T01:08:50.047Z,97000.77
2017-11-03T01:11:16.793Z,96995.98
2017-11-03T01:13:42.944Z,96996.41
2017-11-03T01:16:09.120Z,96996.84
2017-11-03T01:18:35.154Z,96996.41
2017-11-03T01:21:01.395Z,96991.70
2017-11-03T01:23:27.607Z,97000.39
2017-11-03T01:25:53.762Z,96999.62
2017-11-03T01:28:20.223Z,96999.05
2017-11-03T01:30:46.414Z,96987.16
2017-11-03T01:33:12.533Z,96992.16
2017-11-03T01:35:38.672Z,96988.92
2017-11-03T01:38:04.875Z,96987.58
2017-11-03T01:40:30.885Z,96986.23
2017-11-03T01:42:57.078Z,96987.78
2017-11-03T01:45:23.277Z,96988.42
2017-11-03T01:47:49.394Z,96983.40
2017-11-03T01:50:15.592Z,96983.74
2017-11-03T01:52:41.747Z,96984.52
2017-11-03T01:55:07.898Z,96983.17
2017-11-03T01:57:33.986Z,96985.66
2017-11-03T02:00:00.033Z,96985.53
2017-11-03T02:02:26.185Z,96979.67
2017-11-03T02:04:52.426Z,96988.94
2017-11-03T02:07:18.611Z,96982.03
2017-11-03T02:09:44.682Z,96986.70
2017-11-03T02:12:10.828Z,96979.23
2017-11-03T02:14:36.990Z,96986.50
2017-11-03T02:17:03.096Z,96990.17
2017-11-03T02:19:29.250Z,96989.05
2017-11-03T02:21:55.480Z,96983.14
2017-11-03T02:24:21.670Z,96976.25
2017-11-03T02:26:47.774Z,96976.92
2017-11-03T02:29:13.979Z,96982.42
2017-11-03T02:31:40.608Z,96972.29
2017-11-03T02:34:06.768Z,96974.20
2017-11-03T02:36:32.788Z,96977.41
2017-11-03T02:38:58.893Z,96971.34
2017-11-03T02:41:25.101Z,96969.39
2017-11-03T02:43:51.286Z,96976.79
2017-11-03T02:46:17.434Z,96976.11
2017-11-03T02:48:43.535Z,96974.83
2017-11-03T02:51:09.616Z,96976.38
2017-11-03T02:53:35.665Z,96974.26
2017-11-03T02:56:01.743Z,96969.77
2017-11-03T02:58:27.836Z,96978.89
2017-11-03T03:00:53.938Z,96978.39
2017-11-03T03:03:20.095Z,96969.07
2017-11-03T03:05:46.309Z,96972.67
2017-11-03T03:08:12.473Z,96970.52
2017-11-03T03:10:38.594Z,96961.61
2017-11-03T03:13:04.927Z,96968.26
2017-11-03T03:15:31.067Z,96965.11
2017-11-03T03:17:57.468Z,96966.81
2017-11-03T03:20:23.926Z,96975.19
2017-11-03T03:22:49.994Z,96973.80
2017-11-03T03:25:16.305Z,96967.94
2017-11-03T03:27:42.445Z,96971.58
2017-11-03T03:30:08.612Z,96965.70
2017-11-03T03:32:35.118Z,96979.53
2017-11-03T03:35:01.348Z,96972.22
2017-11-03T03:37:27.481Z,96975.66
2017-11-03T03:39:53.558Z,96982.80
2017-11-03T03:42:19.609Z,96988.48
2017-11-03T03:44:45.754Z,96990.80
2017-11-03T03:47:11.929Z,96992.87
2017-11-03T03:49:38.105Z,96992.63
2017-11-03T03:52:04.469Z,96998.59
2017-11-03T03:54:30.622Z,97004.15
2017-11-03T03:56:56.696Z,96998.73
2017-11-03T03:59:22.786Z,96999.32
2017-11-03T04:01:49.066Z,96995.66
2017-11-03T04:04:15.295Z,96992.22
2017-11-03T04:06:41.413Z,96990.21
2017-11-03T04:09:07.509Z,96991.50
2017-11-03T04:11:33.742Z,96993.38
2017-11-03T04:13:59.777Z,96993.49
2017-11-03T04:16:25.894Z,96997.73
2017-11-03T04:18:51.983Z,97002.12
2017-11-03T04:21:18.081Z,96989.28
2017-11-03T04:23:44.253Z,96996.34
2017-11-03T04:26:10.321Z,97001.56
2017-11-03T04:28:36.399Z,96997.09
2017-11-03T04:31:02.516Z,96990.28
2017-11-03T04:33:28.684Z,96995.25
2017-11-03T04:35:54.881Z,96988.35
2017-11-03T04:38:21.261Z,96988.07
2017-11-03T04:40:47.338Z,96988.11
2017-11-03T04:43:13.387Z,96986.78
2017-11-03T04:45:39.488Z,96978.24
2017-11-03T04:48:05.534Z,96988.59
2017-11-03T04:50:31.716Z,96988.47
2017-11-03T04:52:58.599Z,96988.95
2017-11-03T04:55:24.749Z,96994.04
2017-11-03T04:57:50.816Z,96985.64
2017-11-03T05:00:17.036Z,96985.43
2017-11-03T05:02:43.093Z,96985.64
2017-11-03T05:05:09.121Z,96986.08
2017-11-03T05:07:35.289Z,96990.22
2017-11-03T05:10:01.841Z,96989.61
2017-11-03T05:12:27.930Z,96984.70
2017-11-03T05:14:53.958Z,96990.87
2017-11-03T05:17:19.974Z,96996.23
2017-11-03T05:19:46.067Z,96990.87
2017-11-03T05:22:12.358Z,96993.12
2017-11-03T05:24:38.472Z,96998.73
2017-11-03T05:27:04.491Z,96990.55
2017-11-03T05:29:30.713Z,96993.83
2017-11-03T05:31:56.846Z,96991.48
2017-11-03T05:34:23.283Z,96993.66
2017-11-03T05:36:49.559Z,96990.69
2017-11-03T05:39:15.704Z,96994.75
2017-11-03T05:41:41.993Z,96989.43
2017-11-03T05:44:08.188Z,96990.09
2017-11-03T05:46:34.522Z,96992.19
2017-11-03T05:49:00.765Z,96992.91
2017-11-03T05:51:27.021Z,96985.23
2017-11-03T05:53:53.205Z,96988.20
2017-11-03T05:56:19.440Z,96986.09
2017-11-03T05:58:45.961Z,96986.44
2017-11-03T06:01:12.211Z,96979.52
2017-11-03T06:03:38.216Z,96978.73
2017-11-03T06:06:04.450Z,96980.57
2017-11-03T06:08:30.633Z,96977.13
2017-11-03T06:10:56.777Z,96981.70
2017-11-03T06:13:22.936Z,96987.36
2017-11-03T06:15:49.160Z,96985.31
2017-11-03T06:18:15.267Z,96991.82
2017-11-03T06:20:41.433Z,96988.56
2017-11-03T06:23:07.476Z,96994.36
2017-11-03T06:25:33.742Z,96991.88
2017-11-03T06:30:34.593Z,96993.67
2017-11-03T06:33:08.196Z,96994.30
2017-11-03T06:35:34.894Z,96991.33
2017-11-03T06:38:01.149Z,96991.60
2017-11-03T06:40:33.665Z,96984.23
2017-11-03T06:43:00.736Z,96990.16
2017-11-03T06:45:27.058Z,96985.88
2017-11-03T06:47:54.893Z,96992.75
2017-11-03T06:50:32.470Z,96994.08
2017-11-03T06:52:58.922Z,96995.53
2017-11-03T06:55:25.329Z,96998.45
2017-11-03T06:57:51.514Z,96998.61
2017-11-03T07:00:21.520Z,96995.41
2017-11-03T07:02:47.660Z,96997.70
2017-11-03T07:05:13.796Z,96999.03
2017-11-03T07:07:44.190Z,97000.52
2017-11-03T07:10:10.337Z,97008.22
2017-11-03T07:12:36.741Z,97002.72
2017-11-03T07:15:03.003Z,97007.40
2017-11-03T07:17:29.316Z,97002.72
2017-11-03T07:19:55.574Z,97006.78
2017-11-03T07:22:26.165Z,96996.87
2017-11-03T07:24:56.508Z,96998.28
2017-11-03T07:27:23.851Z,96993.62
2017-11-03T07:29:52.029Z,97001.86
2017-11-03T07:32:18.866Z,97002.70
2017-11-03T07:34:46.569Z,96997.52
2017-11-03T07:37:12.679Z,96995.26
2017-11-03T07:39:41.952Z,96996.59
2017-11-03T07:42:09.460Z,96990.55
2017-11-03T07:44:35.791Z,96995.32
2017-11-03T07:47:05.510Z,96992.77
2017-11-03T07:49:31.855Z,96991.99
2017-11-03T07:51:58.404Z,96992.98
2017-11-03T07:54:24.693Z,96991.52
2017-11-03T07:56:51.069Z,96991.79
2017-11-03T07:59:17.305Z,96996.75
2017-11-03T08:01:43.469Z,96995.59
2017-11-03T08:04:09.705Z,96986.97
2017-11-03T08:06:39.109Z,96994.10
2017-11-03T08:09:06.090Z,96994.60
2017-11-03T08:11:32.407Z,96984.61
2017-11-03T08:13:58.515Z,96992.98
2017-11-03T08:16:30.334Z,96989.41
2017-11-03T08:18:57.873Z,96987.76
2017-11-03T08:21:27.449Z,96983.93
2017-11-03T08:23:53.825Z,96982.51
2017-11-03T08:26:20.927Z,96980.41
2017-11-03T08:28:47.686Z,96984.48
2017-11-03T08:31:19.796Z,96978.91
2017-11-03T08:33:47.330Z,96982.82
2017-11-03T08:36:13.981Z,96976.53
2017-11-03T08:38:40.284Z,96976.09
2017-11-03T08:41:07.319Z,96971.48
2017-11-03T08:43:33.644Z,96968.50
2017-11-03T08:46:01.856Z,96969.83
2017-11-03T08:51:03.275Z,96959.73
2017-11-03T08:53:30.098Z,96960.05
2017-11-03T08:55:59.612Z,96962.16
2017-11-03T08:58:28.883Z,96955.91
2017-11-03T09:00:57.571Z,96953.82
2017-11-03T09:03:31.987Z,96951.98
2017-11-03T09:06:12.560Z,96957.80
2017-11-03T09:08:42.032Z,96955.28
2017-11-03T09:11:09.864Z,96959.08
2017-11-03T09:13:36.349Z,96959.50
2017-11-03T09:16:04.750Z,96958.46
2017-11-03T09:18:33.521Z,96955.95
2017-11-03T09:20:59.919Z,96947.95
2017-11-03T09:23:26.052Z,96948.73
2017-11-03T09:25:52.280Z,96948.38
2017-11-03T09:28:18.645Z,96948.94
2017-11-03T09:30:45.035Z,96946.64
2017-11-03T09:33:12.652Z,96947.28
2017-11-03T09:35:42.176Z,96944.31
2017-11-03T09:38:08.576Z,96950.23
2017-11-03T09:40:34.799Z,96939.50
2017-11-03T09:43:03.121Z,96939.97
2017-11-03T09:45:29.554Z,96937.28
2017-11-03T09:47:57.059Z,96930.08
2017-11-03T09:50:24.393Z,96929.77
2017-11-03T09:52:51.313Z,96930.64
2017-11-03T09:55:17.682Z,96927.34
2017-11-03T09:57:44.774Z,96926.23
2017-11-03T10:00:14.120Z,96921.91
2017-11-03T10:02:43.315Z,96913.61
2017-11-03T10:05:09.752Z,96912.23
2017-11-03T10:07:36.251Z,96912.41
2017-11-03T10:10:03.356Z,96909.73
2017-11-03T10:12:29.949Z,96906.16
2017-11-03T10:14:56.394Z,96895.97
2017-11-03T10:17:29.074Z,96894.89
2017-11-03T10:19:58.730Z,96897.03
2017-11-03T10:22:25.138Z,96897.88
2017-11-03T10:25:00.275Z,96895.30
2017-11-03T10:27:26.447Z,96885.84
2017-11-03T10:29:52.727Z,96884.91
2017-11-03T10:34:51.501Z,96875.84
2017-11-03T10:37:17.654Z,96879.33
2017-11-03T10:39:43.843Z,96875.81
2017-11-03T10:45:01.073Z,96873.47
2017-11-03T10:50:10.129Z,96854.25
2017-11-03T10:52:41.735Z,96855.50
2017-11-03T10:55:09.159Z,96854.79
2017-11-03T10:57:38.502Z,96854.73
2017-11-03T11:00:14.111Z,96846.07
2017-11-03T11:02:41.233Z,96846.34
2017-11-03T11:05:11.041Z,96845.84
2017-11-03T11:07:46.052Z,96843.75
2017-11-03T11:10:13.439Z,96843.20
2017-11-03T11:15:39.687Z,96832.95
2017-11-03T11:18:08.080Z,96831.95
2017-11-03T11:20:45.551Z,96826.58
2017-11-03T11:23:17.524Z,96821.20
2017-11-03T11:25:44.528Z,96819.44
2017-11-03T11:28:12.110Z,96819.11
2017-11-03T11:30:38.386Z,96814.25
2017-11-03T11:33:07.773Z,96813.42
2017-11-03T11:35:36.937Z,96803.75
2017-11-03T11:38:06.414Z,96799.35
2017-11-03T11:40:39.556Z,96800.30
2017-11-03T11:43:06.570Z,96793.42
2017-11-03T11:45:35.448Z,96793.02
2017-11-03T11:48:03.676Z,96790.23
2017-11-03T11:50:33.939Z,96793.95
2017-11-03T11:53:00.540Z,96787.92
2017-11-03T11:55:28.393Z,96794.55
2017-11-03T11:57:57.165Z,96790.47
2017-11-03T12:00:23.765Z,96783.15
2017-11-03T12:02:56.296Z,96782.13
2017-11-03T12:05:29.091Z,96781.27
2017-11-03T12:07:58.630Z,96780.34
2017-11-03T12:10:25.772Z,96773.63
2017-11-03T12:12:52.145Z,96764.53
2017-11-03T12:15:24.317Z,96765.67
2017-11-03T12:17:56.724Z,96766.70
2017-11-03T12:20:25.462Z,96760.38
2017-11-03T12:23:00.383Z,96761.98
2017-11-03T12:25:32.219Z,96755.27
2017-11-03T12:28:03.860Z,96751.81
2017-11-03T12:30:33.780Z,96746.93
2017-11-03T12:33:03.218Z,96747.31
2017-11-03T12:38:01.764Z,96735.72
2017-11-03T12:40:28.632Z,96737.11
2017-11-03T12:43:03.895Z,96730.01
2017-11-03T12:45:33.199Z,96732.79
2017-11-03T12:48:05.854Z,96723.08
2017-11-03T12:50:34.577Z,96720.05
2017-11-03T12:53:03.337Z,96722.05
2017-11-03T12:55:34.316Z,96715.27
2017-11-03T12:58:03.097Z,96717.75
2017-11-03T13:00:29.637Z,96711.19
2017-11-03T13:02:55.857Z,96707.63
2017-11-03T13:05:28.533Z,96707.84
2017-11-03T13:08:04.877Z,96704.30
2017-11-03T13:10:34.874Z,96708.67
2017-11-03T13:13:02.288Z,96701.78
2017-11-03T13:15:31.746Z,96701.89
2017-11-03T13:17:57.853Z,96696.02
2017-11-03T13:20:32.872Z,96695.06
2017-11-03T13:23:09.204Z,96690.45
2017-11-03T13:25:35.854Z,96690.96
2017-11-03T13:28:05.422Z,96682.87
2017-11-03T13:30:35.119Z,96686.52
2017-11-03T13:35:47.932Z,96684.03
2017-11-03T13:38:14.199Z,96689.00
2017-11-03T13:40:55.130Z,96681.55
2017-11-03T13:43:22.820Z,96678.45
2017-11-03T13:45:50.076Z,96675.20
2017-11-03T13:48:19.447Z,96677.52
2017-11-03T13:50:48.839Z,96679.08
2017-11-03T13:53:15.306Z,96673.67
2017-11-03T13:55:57.062Z,96673.78
2017-11-03T14:01:17.902Z,96676.70
2017-11-03T14:03:49.587Z,96668.83
2017-11-03T14:06:19.747Z,96668.60
2017-11-03T14:08:46.960Z,96668.17
2017-11-03T14:11:13.302Z,96662.28
2017-11-03T14:13:39.647Z,96665.67
2017-11-03T14:16:19.506Z,96662.41
2017-11-03T14:18:46.545Z,96665.06
2017-11-03T14:21:18.475Z,96659.28
2017-11-03T14:23:46.783Z,96662.14
2017-11-03T14:26:21.532Z,96661.16
2017-11-03T14:28:48.611Z,96659.79
2017-11-03T14:31:27.001Z,96656.75
2017-11-03T14:33:53.828Z,96656.81
2017-11-03T14:36:20.648Z,96653.98
2017-11-03T14:38:51.472Z,96656.88
2017-11-03T14:41:18.548Z,96656.93
2017-11-03T14:43:56.758Z,96649.89
2017-11-03T14:46:23.301Z,96649.33
2017-11-03T14:48:49.752Z,96648.35
2017-11-03T14:51:15.951Z,96654.17
2017-11-03T14:53:45.488Z,96645.66
2017-11-03T14:56:15.786Z,96648.84
2017-11-03T14:58:57.761Z,96647.04
2017-11-03T15:07:20.944Z,96646.98
2017-11-03T15:09:49.686Z,96640.34
2017-11-03T15:12:27.216Z,96635.13
2017-11-03T15:14:58.100Z,96631.78
2017-11-03T15:17:25.118Z,96635.64
2017-11-03T15:19:52.066Z,96631.41
2017-11-03T15:22:18.803Z,96626.53
2017-11-03T15:24:45.026Z,96633.78
2017-11-03T15:27:11.341Z,96632.05
2017-11-03T15:29:37.664Z,96626.34
2017-11-03T15:32:04.007Z,96627.53
2017-11-03T15:34:30.155Z,96624.94
2017-11-03T15:36:56.366Z,96626.91
2017-11-03T15:39:22.467Z,96630.30
2017-11-03T15:41:48.588Z,96624.11
2017-11-03T15:47:08.526Z,96623.03
2017-11-03T15:49:34.790Z,96626.55
2017-11-03T15:52:01.012Z,96631.56
2017-11-03T15:54:27.316Z,96641.94
2017-11-03T15:56:53.442Z,96642.59
2017-11-03T15:59:20.586Z,96638.26
2017-11-03T16:01:46.906Z,96641.94
2017-11-03T16:04:13.126Z,96637.97
2017-11-03T16:06:40.406Z,96630.38
2017-11-03T16:09:06.844Z,96627.77
2017-11-03T16:11:32.879Z,96627.97
2017-11-03T16:13:58.988Z,96627.11
2017-11-03T16:16:25.336Z,96632.02
2017-11-03T16:18:51.428Z,96633.25
2017-11-03T16:21:17.572Z,96630.45
2017-11-03T16:23:43.721Z,96632.70
2017-11-03T16:26:09.963Z,96634.42
2017-11-03T16:28:36.097Z,96626.06
2017-11-03T16:31:02.213Z,96629.05
2017-11-03T16:33:29.179Z,96627.05
2017-11-03T16:35:55.298Z,96627.66
2017-11-03T16:38:21.524Z,96624.55
2017-11-03T16:40:47.699Z,96626.31
2017-11-03T16:43:14.044Z,96623.03
2017-11-03T16:45:40.168Z,96618.19
2017-11-03T16:48:06.539Z,96622.33
2017-11-03T16:50:33.581Z,96633.42
2017-11-03T16:53:00.293Z,96629.41
2017-11-03T16:55:33.392Z,96633.27
2017-11-03T16:57:59.812Z,96636.31
2017-11-03T17:00:26.003Z,96630.86
2017-11-03T17:02:52.103Z,96633.77
2017-11-03T17:05:18.176Z,96635.59
2017-11-03T17:07:44.625Z,96625.59
2017-11-03T17:10:11.042Z,96629.19
2017-11-03T17:12:37.616Z,96625.34
2017-11-03T17:15:03.841Z,96632.72
2017-11-03T17:17:30.579Z,96633.91
2017-11-03T17:19:56.837Z,96626.41
2017-11-03T17:22:23.016Z,96629.42
2017-11-03T17:24:49.151Z,96631.06
2017-11-03T17:27:15.239Z,96637.55
2017-11-03T17:29:41.538Z,96623.58
2017-11-03T17:32:07.751Z,96628.97
2017-11-03T17:34:33.947Z,96630.20
2017-11-03T17:37:00.112Z,96633.51
2017-11-03T17:39:26.189Z,96623.95
2017-11-03T17:41:52.291Z,96622.05
2017-11-03T17:44:18.573Z,96621.08
2017-11-03T17:46:44.716Z,96614.80
2017-11-03T17:49:11.973Z,96609.44
2017-11-03T17:51:38.214Z,96620.43
2017-11-03T17:54:04.533Z,96620.55
2017-11-03T17:56:30.634Z,96625.09
2017-11-03T17:58:56.825Z,96615.70
2017-11-03T18:01:22.894Z,96616.46
2017-11-03T18:03:49.116Z,96620.62
2017-11-03T18:06:16.446Z,96623.52
2017-11-03T18:08:42.632Z,96623.41
2017-11-03T18:11:08.760Z,96618.18
2017-11-03T18:13:34.989Z,96622.20
2017-11-03T18:16:01.239Z,96619.66
2017-11-03T18:18:27.492Z,96614.43
2017-11-03T18:20:53.649Z,96614.61
2017-11-03T18:23:19.762Z,96616.55
2017-11-03T18:25:45.885Z,96611.83
2017-11-03T18:28:12.154Z,96617.27
2017-11-03T18:30:45.859Z,96604.44
2017-11-03T18:33:11.959Z,96605.46
2017-11-03T18:35:38.517Z,96604.13
2017-11-03T18:38:04.741Z,96604.86
2017-11-03T18:40:31.324Z,96600.53
2017-11-03T18:42:57.612Z,96605.81
2017-11-03T18:45:23.739Z,96603.25
2017-11-03T18:47:50.130Z,96601.37
2017-11-03T18:50:16.888Z,96602.37
2017-11-03T18:52:43.595Z,96600.83
2017-11-03T18:55:09.883Z,96597.18
2017-11-03T18:57:36.496Z,96604.02
2017-11-03T19:00:02.713Z,96601.03
2017-11-03T19:02:28.999Z,96605.00
2017-11-03T19:04:55.410Z,96598.12
2017-11-03T19:07:21.904Z,96603.60
2017-11-03T19:09:47.985Z,96607.61
2017-11-03T19:12:14.065Z,96611.19
2017-11-03T19:14:40.140Z,96609.72
2017-11-03T19:22:48.211Z,96606.69
2017-11-03T19:28:57.470Z,96604.71
2017-11-03T19:34:27.981Z,96612.07
2017-11-03T19:36:54.312Z,96623.07
2017-11-03T19:43:04.472Z,96619.66
2017-11-03T19:45:30.736Z,96631.52
2017-11-03T19:47:56.869Z,96627.25
2017-11-03T19:50:22.946Z,96624.92
2017-11-03T19:52:49.171Z,96626.61
2017-11-03T19:55:15.358Z,96621.58
2017-11-03T19:57:41.608Z,96620.16
2017-11-03T20:00:07.891Z,96617.23
2017-11-03T20:02:34.156Z,96621.24
2017-11-03T20:05:00.520Z,96629.73
2017-11-03T20:07:26.665Z,96626.23
2017-11-03T20:09:52.676Z,96628.47
2017-11-03T20:12:19.007Z,96628.39
2017-11-03T20:14:45.148Z,96622.78
2017-11-03T20:17:11.493Z,96631.05
2017-11-03T20:19:37.708Z,96635.13
2017-11-03T20:22:03.772Z,96635.05
2017-11-03T20:24:29.899Z,96635.47
2017-11-03T20:26:56.002Z,96640.66
2017-11-03T20:29:22.396Z,96646.13
2017-11-03T20:31:48.647Z,96648.66
2017-11-03T20:34:14.715Z,96645.90
2017-11-03T20:36:40.998Z,96647.78
2017-11-03T20:39:07.160Z,96656.55
2017-11-03T20:41:33.298Z,96659.41
2017-11-03T20:43:59.530Z,96664.45
2017-11-03T20:46:25.772Z,96672.98
2017-11-03T20:48:51.871Z,96666.52
2017-11-03T20:51:18.061Z,96667.30
2017-11-03T20:53:44.336Z,96663.91
2017-11-03T20:56:10.339Z,96665.55
2017-11-03T20:58:36.897Z,96666.20
2017-11-03T21:01:02.965Z,96662.72
2017-11-03T21:03:29.208Z,96664.83
2017-11-03T21:05:55.421Z,96664.17
2017-11-03T21:08:21.651Z,96664.03
2017-11-03T21:10:47.995Z,96667.92
2017-11-03T21:13:14.500Z,96672.31
2017-11-03T21:15:40.717Z,96659.08
2017-11-03T21:18:06.844Z,96659.08
2017-11-03T21:20:33.581Z,96661.79
2017-11-03T21:28:34.481Z,96663.78
2017-11-03T21:31:10.786Z,96667.48
2017-11-03T21:33:53.119Z,96668.83
2017-11-03T21:39:29.985Z,96667.34
2017-11-03T22:06:12.078Z,96678.20
2017-11-03T22:08:44.012Z,96674.74
2017-11-03T22:11:13.037Z,96672.55
2017-11-03T22:13:42.867Z,96669.11
2017-11-03T22:16:09.328Z,96664.77
2017-11-03T22:18:47.234Z,96668.26
2017-11-03T22:21:13.388Z,96674.18
2017-11-03T22:23:39.826Z,96671.92
2017-11-03T22:26:05.995Z,96675.48
2017-11-03T22:28:32.021Z,96675.25
2017-11-03T22:30:58.123Z,96672.52
2017-11-03T22:33:24.215Z,96669.08
2017-11-03T22:35:50.554Z,96672.56
2017-11-03T22:38:16.627Z,96678.91
2017-11-03T22:40:42.815Z,96677.19
2017-11-03T22:43:09.081Z,96684.66
2017-11-03T22:45:35.164Z,96688.48
2017-11-03T22:48:01.216Z,96687.01
2017-11-03T22:50:27.267Z,96680.94
2017-11-03T22:52:53.343Z,96687.31
2017-11-03T22:55:19.545Z,96689.04
2017-11-03T22:57:45.715Z,96686.61
2017-11-03T23:00:11.768Z,96687.12
2017-11-03T23:02:37.973Z,96696.31
2017-11-03T23:05:04.232Z,96689.16
2017-11-03T23:07:30.390Z,96695.30
2017-11-03T23:09:56.535Z,96695.66
2017-11-03T23:12:22.795Z,96697.48
2017-11-03T23:14:48.894Z,96688.96
2017-11-03T23:17:14.934Z,96696.74
2017-11-03T23:19:41.166Z,96693.81
2017-11-03T23:22:07.209Z,96694.20
2017-11-03T23:24:33.279Z,96693.65
2017-11-03T23:26:59.549Z,96691.19
2017-11-03T23:29:25.570Z,96691.06
2017-11-03T23:31:51.813Z,96694.46
2017-11-03T23:34:18.015Z,96695.01
2017-11-03T23:36:44.149Z,96696.38
2017-11-03T23:39:10.212Z,96691.30
2017-11-03T23:41:36.349Z,96688.17
2017-11-03T23:44:02.399Z,96691.19
2017-11-03T23:46:28.533Z,96687.66
2017-11-03T23:48:54.761Z,96692.82
2017-11-03T23:51:20.850Z,96693.56
2017-11-03T23:53:46.894Z,96691.61
2017-11-03T23:56:12.990Z,96690.83
2017-11-03T23:58:39.163Z,96691.42
